createdAt,value
2023-03-01T00:09:33.800Z,100481.66
2023-03-01T00:12:01.632Z,100483.67
2023-03-01T00:14:29.490Z,100486.46
2023-03-01T00:16:57.473Z,100485.80
2023-03-01T00:19:25.817Z,100485.80
2023-03-01T00:21:53.720Z,100485.80
2023-03-01T00:24:21.655Z,100489.46
2023-03-01T00:26:49.688Z,100491.80
2023-03-01T00:29:17.582Z,100491.73
2023-03-01T00:31:45.420Z,100486.48
2023-03-01T00:34:13.323Z,100483.33
2023-03-01T00:36:41.397Z,100480.85
2023-03-01T00:39:14.531Z,100477.55
2023-03-01T00:41:43.625Z,100477.75
2023-03-01T00:44:11.993Z,100470.65
2023-03-01T00:46:40.144Z,100469.05
2023-03-01T00:49:08.247Z,100468.81
2023-03-01T00:51:36.425Z,100469.27
2023-03-01T00:54:04.398Z,100472.17
2023-03-01T00:56:33.313Z,100469.52
2023-03-01T00:59:02.546Z,100463.58
2023-03-01T01:01:32.012Z,100460.58
2023-03-01T01:04:08.803Z,100460.01
2023-03-01T01:06:44.189Z,100459.44
2023-03-01T01:09:18.067Z,100458.02
2023-03-01T01:11:49.480Z,100453.33
2023-03-01T01:14:18.662Z,100454.98
2023-03-01T01:16:46.930Z,100454.04
2023-03-01T01:19:15.347Z,100454.11
2023-03-01T01:21:46.418Z,100454.01
2023-03-01T01:24:15.324Z,100453.96
2023-03-01T01:26:43.766Z,100451.16
2023-03-01T01:29:12.586Z,100452.52
2023-03-01T01:31:42.116Z,100454.05
2023-03-01T01:34:16.523Z,100451.95
2023-03-01T01:36:45.152Z,100446.20
2023-03-01T01:39:14.268Z,100444.23
2023-03-01T01:41:43.398Z,100441.45
2023-03-01T01:44:22.016Z,100435.57
2023-03-01T01:46:59.155Z,100428.32
2023-03-01T01:49:47.240Z,100414.85
2023-03-01T01:52:19.000Z,100412.58
2023-03-01T01:54:59.015Z,100402.90
2023-03-01T01:57:30.920Z,100398.73
2023-03-01T02:00:01.914Z,100393.17
2023-03-01T02:02:30.113Z,100390.09
2023-03-01T02:05:12.163Z,100388.85
2023-03-01T02:07:42.339Z,100390.89
2023-03-01T02:10:10.788Z,100399.13
2023-03-01T02:12:40.956Z,100401.64
2023-03-01T02:15:09.613Z,100397.84
2023-03-01T02:17:38.994Z,100399.69
2023-03-01T02:20:27.718Z,100406.05
2023-03-01T02:22:56.202Z,100404.13
2023-03-01T02:25:40.198Z,100407.18
2023-03-01T02:28:16.990Z,100405.42
2023-03-01T02:31:07.667Z,100401.62
2023-03-01T02:33:38.849Z,100400.23
2023-03-01T02:36:15.065Z,100395.22
2023-03-01T02:38:43.471Z,100383.44
2023-03-01T02:41:14.531Z,100383.77
2023-03-01T02:43:42.875Z,100386.35
2023-03-01T02:46:20.201Z,100387.89
2023-03-01T02:48:54.531Z,100393.13
2023-03-01T02:51:44.741Z,100391.16
2023-03-01T02:54:34.813Z,100385.27
2023-03-01T02:57:03.745Z,100379.38
2023-03-01T02:59:40.440Z,100380.41
2023-03-01T03:02:39.517Z,100385.77
2023-03-01T03:05:25.256Z,100385.77
2023-03-01T03:07:56.399Z,100388.81
2023-03-01T03:10:31.171Z,100387.71
2023-03-01T03:13:05.283Z,100388.58
2023-03-01T03:15:37.007Z,100387.85
2023-03-01T03:18:09.560Z,100390.54
2023-03-01T03:20:38.858Z,100396.04
2023-03-01T03:23:07.231Z,100401.73
2023-03-01T03:25:38.815Z,100403.32
2023-03-01T03:28:11.175Z,100402.90
2023-03-01T03:30:41.281Z,100404.26
2023-03-01T03:33:13.495Z,100405.80
2023-03-01T03:35:44.952Z,100398.34
2023-03-01T03:38:17.845Z,100390.41
2023-03-01T03:40:48.721Z,100385.85
2023-03-01T03:43:22.701Z,100390.55
2023-03-01T03:45:52.182Z,100402.75
2023-03-01T03:48:21.210Z,100396.05
2023-03-01T03:50:52.699Z,100386.58
2023-03-01T03:53:22.602Z,100379.98
2023-03-01T03:55:52.547Z,100376.50
2023-03-01T03:58:24.008Z,100389.70
2023-03-01T04:00:57.383Z,100389.33
2023-03-01T04:03:27.155Z,100385.36
2023-03-01T04:05:55.121Z,100381.19
2023-03-01T04:08:24.044Z,100374.69
2023-03-01T04:10:57.360Z,100371.77
2023-03-01T04:13:26.391Z,100364.92
2023-03-01T04:15:55.722Z,100366.82
2023-03-01T04:18:26.303Z,100362.85
2023-03-01T04:20:56.402Z,100359.07
2023-03-01T04:23:25.000Z,100359.22
2023-03-01T04:25:58.563Z,100364.03
2023-03-01T04:28:33.748Z,100367.11
2023-03-01T04:31:14.734Z,100370.52
2023-03-01T04:33:55.379Z,100365.89
2023-03-01T04:36:25.939Z,100364.84
2023-03-01T04:38:55.061Z,100362.11
2023-03-01T04:41:24.922Z,100357.81
2023-03-01T04:43:53.090Z,100360.05
2023-03-01T04:46:22.096Z,100357.14
2023-03-01T04:48:50.212Z,100356.29
2023-03-01T04:51:19.386Z,100362.66
2023-03-01T04:53:47.775Z,100366.83
2023-03-01T04:56:17.037Z,100366.50
2023-03-01T04:58:45.843Z,100374.23
2023-03-01T05:01:20.747Z,100373.04
2023-03-01T05:03:51.482Z,100370.45
2023-03-01T05:06:21.654Z,100367.66
2023-03-01T05:08:50.071Z,100365.62
2023-03-01T05:11:18.016Z,100363.71
2023-03-01T05:13:45.864Z,100363.02
2023-03-01T05:16:13.920Z,100363.20
2023-03-01T05:18:42.054Z,100362.33
2023-03-01T05:21:18.504Z,100358.20
2023-03-01T05:23:47.922Z,100363.89
2023-03-01T05:26:33.924Z,100362.20
2023-03-01T05:29:02.152Z,100364.27
2023-03-01T05:31:31.873Z,100362.23
2023-03-01T05:33:59.942Z,100364.32
2023-03-01T05:36:27.933Z,100366.20
2023-03-01T05:38:56.801Z,100371.70
2023-03-01T05:41:24.953Z,100373.09
2023-03-01T05:43:52.854Z,100372.79
2023-03-01T05:46:20.769Z,100374.89
2023-03-01T05:48:49.404Z,100373.55
2023-03-01T05:51:18.622Z,100372.37
2023-03-01T05:53:46.650Z,100376.91
2023-03-01T05:56:14.567Z,100377.64
2023-03-01T05:58:42.424Z,100375.64
2023-03-01T06:01:14.594Z,100375.37
2023-03-01T06:03:43.265Z,100373.56
2023-03-01T06:06:11.182Z,100372.98
2023-03-01T06:08:39.108Z,100377.45
2023-03-01T06:11:08.322Z,100375.20
2023-03-01T06:13:36.432Z,100373.70
2023-03-01T06:16:08.096Z,100374.09
2023-03-01T06:18:36.728Z,100375.05
2023-03-01T06:21:05.843Z,100374.77
2023-03-01T06:23:34.117Z,100374.83
2023-03-01T06:26:07.155Z,100374.86
2023-03-01T06:28:35.775Z,100375.08
2023-03-01T06:31:04.410Z,100375.77
2023-03-01T06:33:32.595Z,100378.73
2023-03-01T06:36:00.720Z,100385.39
2023-03-01T06:38:29.202Z,100380.98
2023-03-01T06:40:57.715Z,100373.10
2023-03-01T06:43:25.839Z,100370.55
2023-03-01T06:45:53.744Z,100365.91
2023-03-01T06:48:21.757Z,100368.34
2023-03-01T06:50:49.624Z,100372.86
2023-03-01T06:53:17.664Z,100366.48
2023-03-01T06:55:45.521Z,100361.66
2023-03-01T06:58:13.428Z,100358.54
2023-03-01T07:00:42.001Z,100360.05
2023-03-01T07:03:10.211Z,100358.11
2023-03-01T07:05:38.838Z,100355.64
2023-03-01T07:08:06.926Z,100357.99
2023-03-01T07:10:34.805Z,100354.98
2023-03-01T07:13:02.748Z,100351.23
2023-03-01T07:15:30.704Z,100348.87
2023-03-01T07:17:58.621Z,100346.68
2023-03-01T07:20:26.803Z,100343.30
2023-03-01T07:22:59.371Z,100338.48
2023-03-01T07:25:27.366Z,100333.48
2023-03-01T07:27:55.407Z,100334.71
2023-03-01T07:30:27.033Z,100332.84
2023-03-01T07:32:56.768Z,100327.66
2023-03-01T07:35:27.223Z,100329.78
2023-03-01T07:37:55.313Z,100328.25
2023-03-01T07:40:23.244Z,100329.33
2023-03-01T07:42:56.623Z,100330.72
2023-03-01T07:45:27.592Z,100332.65
2023-03-01T07:47:56.705Z,100330.23
2023-03-01T07:50:24.874Z,100333.87
2023-03-01T07:52:52.787Z,100332.65
2023-03-01T07:55:21.262Z,100335.27
2023-03-01T07:57:49.133Z,100338.55
2023-03-01T08:00:17.627Z,100339.08
2023-03-01T08:02:46.425Z,100342.72
2023-03-01T08:05:14.685Z,100341.01
2023-03-01T08:07:42.789Z,100339.98
2023-03-01T08:10:11.778Z,100336.89
2023-03-01T08:12:39.843Z,100332.05
2023-03-01T08:15:08.735Z,100331.70
2023-03-01T08:17:36.956Z,100326.14
2023-03-01T08:20:07.907Z,100320.25
2023-03-01T08:22:35.827Z,100313.14
2023-03-01T08:25:04.471Z,100310.89
2023-03-01T08:27:32.423Z,100312.42
2023-03-01T08:30:00.337Z,100308.23
2023-03-01T08:32:28.282Z,100306.48
2023-03-01T08:34:56.376Z,100307.83
2023-03-01T08:37:24.348Z,100308.67
2023-03-01T08:39:52.332Z,100307.09
2023-03-01T08:42:20.198Z,100305.17
2023-03-01T08:44:48.138Z,100306.53
2023-03-01T08:47:16.027Z,100300.23
2023-03-01T08:49:43.856Z,100296.73
2023-03-01T08:52:11.724Z,100292.73
2023-03-01T08:54:39.601Z,100287.27
2023-03-01T08:57:07.496Z,100283.92
2023-03-01T08:59:38.377Z,100284.91
2023-03-01T09:02:11.696Z,100285.70
2023-03-01T09:04:40.128Z,100287.39
2023-03-01T09:07:09.805Z,100287.34
2023-03-01T09:09:38.805Z,100296.38
2023-03-01T09:12:07.265Z,100293.74
2023-03-01T09:14:35.316Z,100291.09
2023-03-01T09:17:04.193Z,100291.58
2023-03-01T09:19:32.179Z,100295.75
2023-03-01T09:22:00.116Z,100295.07
2023-03-01T09:24:28.033Z,100295.71
2023-03-01T09:26:56.948Z,100289.23
2023-03-01T09:29:25.330Z,100287.41
2023-03-01T09:31:56.280Z,100287.52
2023-03-01T09:34:24.887Z,100285.98
2023-03-01T09:36:53.048Z,100291.03
2023-03-01T09:39:21.782Z,100292.23
2023-03-01T09:42:03.478Z,100287.51
2023-03-01T09:44:32.337Z,100289.56
2023-03-01T09:47:01.328Z,100284.48
2023-03-01T09:49:31.716Z,100287.74
2023-03-01T09:52:22.233Z,100283.73
2023-03-01T09:54:55.702Z,100286.00
2023-03-01T09:57:31.823Z,100287.52
2023-03-01T10:00:11.840Z,100288.91
2023-03-01T10:02:51.128Z,100289.26
2023-03-01T10:05:34.169Z,100285.60
2023-03-01T10:08:30.493Z,100287.89
2023-03-01T10:10:59.777Z,100289.92
2023-03-01T10:13:43.665Z,100291.45
2023-03-01T10:16:17.918Z,100293.17
2023-03-01T10:18:49.001Z,100291.23
2023-03-01T10:21:20.212Z,100290.70
2023-03-01T10:23:52.738Z,100286.10
2023-03-01T10:26:53.017Z,100284.46
2023-03-01T10:29:27.307Z,100277.62
2023-03-01T10:31:55.672Z,100276.12
2023-03-01T10:34:33.006Z,100273.89
2023-03-01T10:37:19.271Z,100272.63
2023-03-01T10:40:09.157Z,100274.99
2023-03-01T10:42:50.250Z,100266.86
2023-03-01T10:45:22.105Z,100262.54
2023-03-01T10:48:30.030Z,100255.55
2023-03-01T10:51:01.172Z,100252.96
2023-03-01T10:53:37.167Z,100249.58
2023-03-01T10:56:05.209Z,100251.77
2023-03-01T10:58:35.812Z,100250.67
2023-03-01T11:01:24.733Z,100243.77
2023-03-01T11:04:11.287Z,100241.17
2023-03-01T11:06:42.123Z,100232.30
2023-03-01T11:09:20.907Z,100223.83
2023-03-01T11:12:01.033Z,100219.02
2023-03-01T11:14:36.034Z,100216.55
2023-03-01T11:17:26.726Z,100213.05
2023-03-01T11:20:10.474Z,100214.23
2023-03-01T11:22:46.636Z,100216.92
2023-03-01T11:25:16.155Z,100213.27
2023-03-01T11:27:46.696Z,100212.16
2023-03-01T11:30:27.072Z,100207.52
2023-03-01T11:33:29.232Z,100207.13
2023-03-01T11:36:04.228Z,100209.92
2023-03-01T11:38:36.404Z,100208.44
2023-03-01T11:41:23.503Z,100207.78
2023-03-01T11:43:59.856Z,100206.05
2023-03-01T11:46:30.599Z,100202.80
2023-03-01T11:49:36.360Z,100195.20
2023-03-01T11:52:20.423Z,100192.58
2023-03-01T11:54:48.238Z,100192.64
2023-03-01T11:58:02.851Z,100187.06
2023-03-01T12:01:05.836Z,100184.52
2023-03-01T12:03:59.985Z,100182.26
2023-03-01T12:06:46.345Z,100179.71
2023-03-01T12:10:00.269Z,100182.65
2023-03-01T12:12:40.808Z,100181.28
2023-03-01T12:15:33.074Z,100179.46
2023-03-01T12:18:06.994Z,100174.98
2023-03-01T12:20:52.607Z,100177.81
2023-03-01T12:23:47.627Z,100178.53
2023-03-01T12:26:57.095Z,100174.60
2023-03-01T12:29:35.846Z,100174.25
2023-03-01T12:32:12.645Z,100178.04
2023-03-01T12:34:59.237Z,100176.95
2023-03-01T12:37:43.957Z,100174.63
2023-03-01T12:40:35.033Z,100171.89
2023-03-01T12:43:23.761Z,100167.92
2023-03-01T12:46:03.603Z,100165.15
2023-03-01T12:48:51.924Z,100168.02
2023-03-01T12:51:26.023Z,100168.58
2023-03-01T12:53:57.309Z,100167.46
2023-03-01T12:56:29.995Z,100162.59
2023-03-01T12:59:18.460Z,100160.47
2023-03-01T13:01:55.491Z,100157.95
2023-03-01T13:04:37.586Z,100155.45
2023-03-01T13:07:20.148Z,100154.20
2023-03-01T13:10:42.096Z,100156.41
2023-03-01T13:13:14.301Z,100159.80
2023-03-01T13:15:42.350Z,100162.06
2023-03-01T13:18:12.980Z,100159.27
2023-03-01T13:20:44.045Z,100156.73
2023-03-01T13:23:30.856Z,100153.04
2023-03-01T13:26:04.778Z,100152.15
2023-03-01T13:28:32.690Z,100149.71
2023-03-01T13:31:02.550Z,100146.65
2023-03-01T13:33:30.411Z,100145.25
2023-03-01T13:35:59.520Z,100142.84
2023-03-01T13:39:01.044Z,100138.81
2023-03-01T13:41:44.101Z,100137.90
2023-03-01T13:44:27.953Z,100136.84
2023-03-01T13:47:18.391Z,100135.89
2023-03-01T13:49:58.257Z,100134.86
2023-03-01T13:52:38.958Z,100131.59
2023-03-01T13:55:17.872Z,100131.79
2023-03-01T13:57:54.670Z,100134.80
2023-03-01T14:00:40.529Z,100132.47
2023-03-01T14:03:17.402Z,100128.55
2023-03-01T14:06:17.321Z,100125.71
2023-03-01T14:08:50.390Z,100116.35
2023-03-01T14:11:50.140Z,100112.01
2023-03-01T14:14:27.089Z,100108.16
2023-03-01T14:17:14.127Z,100107.57
2023-03-01T14:19:46.275Z,100101.19
2023-03-01T14:22:24.721Z,100094.61
2023-03-01T14:24:56.567Z,100088.06
2023-03-01T14:27:33.745Z,100081.04
2023-03-01T14:30:05.388Z,100079.39
2023-03-01T14:32:33.656Z,100076.52
2023-03-01T14:35:01.920Z,100076.33
2023-03-01T14:37:35.096Z,100077.20
2023-03-01T14:40:05.434Z,100073.90
2023-03-01T14:42:37.213Z,100073.77
2023-03-01T14:45:08.139Z,100073.25
2023-03-01T14:47:41.214Z,100071.81
2023-03-01T14:50:16.867Z,100073.33
2023-03-01T14:52:48.358Z,100073.22
2023-03-01T14:55:20.060Z,100072.33
2023-03-01T14:57:50.491Z,100072.60
2023-03-01T15:00:25.397Z,100069.11
2023-03-01T15:02:55.028Z,100064.65
2023-03-01T15:05:34.967Z,100061.04
2023-03-01T15:08:05.644Z,100061.15
2023-03-01T15:10:37.499Z,100061.11
2023-03-01T15:13:25.433Z,100058.41
2023-03-01T15:16:08.045Z,100057.23
2023-03-01T15:18:37.660Z,100055.00
2023-03-01T15:21:24.335Z,100052.61
2023-03-01T15:24:28.655Z,100053.57
2023-03-01T15:27:02.857Z,100050.02
2023-03-01T15:29:34.408Z,100052.86
2023-03-01T15:32:06.931Z,100060.98
2023-03-01T15:34:38.690Z,100063.71
2023-03-01T15:37:28.532Z,100063.31
2023-03-01T15:39:58.691Z,100061.48
2023-03-01T15:42:26.497Z,100061.38
2023-03-01T15:45:13.336Z,100062.38
2023-03-01T15:47:43.028Z,100059.38
2023-03-01T15:50:21.760Z,100060.64
2023-03-01T15:52:50.447Z,100059.67
2023-03-01T15:55:26.148Z,100055.77
2023-03-01T15:58:25.602Z,100054.11
2023-03-01T16:01:01.080Z,100048.27
2023-03-01T16:03:30.107Z,100050.80
2023-03-01T16:05:58.166Z,100052.96
2023-03-01T16:08:26.315Z,100053.77
2023-03-01T16:10:55.610Z,100054.92
2023-03-01T16:13:23.738Z,100054.84
2023-03-01T16:15:52.506Z,100057.52
2023-03-01T16:18:20.817Z,100055.52
2023-03-01T16:20:49.342Z,100056.33
2023-03-01T16:23:17.335Z,100064.27
2023-03-01T16:25:45.269Z,100067.86
2023-03-01T16:28:13.195Z,100068.84
2023-03-01T16:30:41.545Z,100066.34
2023-03-01T16:33:25.185Z,100064.53
2023-03-01T16:35:56.288Z,100063.27
2023-03-01T16:38:24.637Z,100064.08
2023-03-01T16:40:53.046Z,100062.60
2023-03-01T16:43:21.343Z,100068.27
2023-03-01T16:45:49.295Z,100070.59
2023-03-01T16:48:17.373Z,100074.33
2023-03-01T16:50:45.486Z,100075.98
2023-03-01T16:53:13.450Z,100075.53
2023-03-01T16:55:46.449Z,100077.00
2023-03-01T16:58:16.475Z,100080.20
2023-03-01T17:00:44.496Z,100084.80
2023-03-01T17:03:14.891Z,100088.88
2023-03-01T17:05:43.147Z,100092.25
2023-03-01T17:08:11.145Z,100090.20
2023-03-01T17:10:39.275Z,100092.86
2023-03-01T17:13:07.602Z,100093.05
2023-03-01T17:15:36.142Z,100091.00
2023-03-01T17:18:04.520Z,100091.56
2023-03-01T17:20:32.460Z,100092.98
2023-03-01T17:23:00.571Z,100097.02
2023-03-01T17:25:29.362Z,100104.54
2023-03-01T17:27:58.332Z,100106.99
2023-03-01T17:30:26.551Z,100112.39
2023-03-01T17:32:56.360Z,100111.37
2023-03-01T17:35:24.576Z,100115.39
2023-03-01T17:37:52.599Z,100119.91
2023-03-01T17:40:20.650Z,100122.02
2023-03-01T17:42:48.568Z,100119.78
2023-03-01T17:45:16.680Z,100124.83
2023-03-01T17:47:44.727Z,100125.17
2023-03-01T17:50:12.680Z,100125.90
2023-03-01T17:52:41.609Z,100128.34
2023-03-01T17:55:10.630Z,100130.26
2023-03-01T17:57:40.636Z,100130.95
2023-03-01T18:00:16.173Z,100132.36
2023-03-01T18:02:48.645Z,100130.96
2023-03-01T18:05:17.453Z,100129.76
2023-03-01T18:07:45.696Z,100127.69
2023-03-01T18:10:14.621Z,100124.58
2023-03-01T18:12:43.450Z,100124.95
2023-03-01T18:15:12.608Z,100123.41
2023-03-01T18:17:40.980Z,100127.41
2023-03-01T18:20:10.606Z,100124.81
2023-03-01T18:22:40.013Z,100123.42
2023-03-01T18:25:09.242Z,100117.01
2023-03-01T18:27:38.707Z,100111.80
2023-03-01T18:30:08.958Z,100110.07
2023-03-01T18:32:39.680Z,100100.20
2023-03-01T18:35:08.468Z,100099.69
2023-03-01T18:37:36.656Z,100099.17
2023-03-01T18:40:08.845Z,100098.32
2023-03-01T18:42:37.565Z,100100.75
2023-03-01T18:45:06.791Z,100101.09
2023-03-01T18:47:37.662Z,100099.36
2023-03-01T18:50:08.976Z,100100.91
2023-03-01T18:52:37.249Z,100094.52
2023-03-01T18:55:06.595Z,100091.56
2023-03-01T18:57:34.713Z,100091.04
2023-03-01T19:00:04.740Z,100091.04
2023-03-01T19:02:33.435Z,100090.35
2023-03-01T19:05:01.556Z,100089.83
2023-03-01T19:07:32.682Z,100088.44
2023-03-01T19:10:00.909Z,100086.19
2023-03-01T19:12:35.496Z,100083.24
2023-03-01T19:15:05.390Z,100082.39
2023-03-01T19:17:35.803Z,100083.08
2023-03-01T19:20:05.233Z,100083.58
2023-03-01T19:22:34.320Z,100081.66
2023-03-01T19:25:03.923Z,100083.55
2023-03-01T19:27:32.479Z,100084.08
2023-03-01T19:30:03.503Z,100081.84
2023-03-01T19:32:33.365Z,100083.39
2023-03-01T19:35:01.905Z,100086.15
2023-03-01T19:37:30.591Z,100083.55
2023-03-01T19:40:01.325Z,100082.69
2023-03-01T19:42:29.484Z,100081.11
2023-03-01T19:44:57.851Z,100082.49
2023-03-01T19:47:26.568Z,100081.27
2023-03-01T19:49:54.595Z,100075.39
2023-03-01T19:52:22.902Z,100073.81
2023-03-01T19:54:53.790Z,100069.30
2023-03-01T19:57:24.054Z,100071.02
2023-03-01T19:59:52.540Z,100073.24
2023-03-01T20:02:21.405Z,100078.25
2023-03-01T20:04:50.320Z,100081.02
2023-03-01T20:07:18.629Z,100080.48
2023-03-01T20:09:46.643Z,100077.86
2023-03-01T20:12:14.885Z,100075.77
2023-03-01T20:14:55.410Z,100075.21
2023-03-01T20:17:24.059Z,100080.54
2023-03-01T20:19:52.195Z,100085.20
2023-03-01T20:22:20.456Z,100090.58
2023-03-01T20:24:48.913Z,100098.02
2023-03-01T20:27:17.131Z,100100.25
2023-03-01T20:29:46.057Z,100097.48
2023-03-01T20:32:14.245Z,100094.86
2023-03-01T20:34:44.665Z,100090.88
2023-03-01T20:37:16.868Z,100082.39
2023-03-01T20:39:45.744Z,100078.73
2023-03-01T20:42:16.445Z,100077.33
2023-03-01T20:44:45.892Z,100073.50
2023-03-01T20:47:15.578Z,100069.02
2023-03-01T20:49:43.694Z,100067.97
2023-03-01T20:52:11.723Z,100064.01
2023-03-01T20:54:40.888Z,100064.88
2023-03-01T20:57:09.175Z,100062.61
2023-03-01T20:59:37.985Z,100065.39
2023-03-01T21:02:06.361Z,100065.54
2023-03-01T21:04:37.084Z,100068.98
2023-03-01T21:07:05.186Z,100066.89
2023-03-01T21:09:34.920Z,100067.89
2023-03-01T21:12:04.367Z,100068.70
2023-03-01T21:14:42.403Z,100065.75
2023-03-01T21:17:12.914Z,100069.02
2023-03-01T21:19:45.413Z,100074.04
2023-03-01T21:22:15.721Z,100076.96
2023-03-01T21:24:45.304Z,100075.38
2023-03-01T21:27:15.586Z,100076.23
2023-03-01T21:29:46.057Z,100074.48
2023-03-01T21:32:14.866Z,100075.51
2023-03-01T21:34:45.528Z,100072.73
2023-03-01T21:37:13.443Z,100071.85
2023-03-01T21:39:41.739Z,100073.91
2023-03-01T21:42:09.616Z,100070.96
2023-03-01T21:44:37.864Z,100069.56
2023-03-01T21:47:07.129Z,100067.13
2023-03-01T21:49:38.375Z,100064.35
2023-03-01T21:52:06.413Z,100066.94
2023-03-01T21:54:35.071Z,100062.79
2023-03-01T21:57:03.210Z,100056.56
2023-03-01T21:59:31.330Z,100057.42
2023-03-01T22:01:59.323Z,100055.17
2023-03-01T22:04:27.339Z,100052.59
2023-03-01T22:06:55.629Z,100050.88
2023-03-01T22:09:24.589Z,100051.39
2023-03-01T22:11:58.418Z,100046.36
2023-03-01T22:14:26.524Z,100045.48
2023-03-01T22:16:54.904Z,100043.73
2023-03-01T22:19:23.386Z,100045.61
2023-03-01T22:21:52.669Z,100044.55
2023-03-01T22:24:24.856Z,100042.64
2023-03-01T22:26:54.864Z,100036.58
2023-03-01T22:29:26.225Z,100044.32
2023-03-01T22:31:55.672Z,100044.49
2023-03-01T22:34:24.619Z,100045.35
2023-03-01T22:36:52.556Z,100045.34
2023-03-01T22:39:21.705Z,100044.13
2023-03-01T22:41:50.338Z,100042.38
2023-03-01T22:44:22.210Z,100043.58
2023-03-01T22:46:50.842Z,100042.86
2023-03-01T22:49:20.068Z,100040.23
2023-03-01T22:51:48.860Z,100037.09
2023-03-01T22:54:18.712Z,100043.48
2023-03-01T22:56:47.048Z,100048.10
2023-03-01T22:59:18.994Z,100045.66
2023-03-01T23:01:48.035Z,100044.28
2023-03-01T23:04:17.677Z,100044.06
2023-03-01T23:06:55.822Z,100045.78
2023-03-01T23:09:32.885Z,100046.64
2023-03-01T23:12:02.586Z,100043.89
2023-03-01T23:14:32.245Z,100041.63
2023-03-01T23:17:01.722Z,100045.44
2023-03-01T23:19:30.710Z,100046.80
2023-03-01T23:21:58.984Z,100048.85
2023-03-01T23:24:31.375Z,100053.45
2023-03-01T23:27:02.015Z,100058.05
2023-03-01T23:29:31.227Z,100058.47
2023-03-01T23:32:00.436Z,100057.90
2023-03-01T23:34:28.470Z,100058.04
2023-03-01T23:36:58.075Z,100056.83
2023-03-01T23:39:26.397Z,100052.36
2023-03-01T23:41:54.440Z,100048.02
2023-03-01T23:44:22.972Z,100046.33
2023-03-01T23:46:51.431Z,100046.88
2023-03-01T23:49:22.133Z,100045.82
2023-03-01T23:51:50.568Z,100046.30
2023-03-01T23:54:22.272Z,100044.38
2023-03-01T23:56:50.632Z,100038.48
2023-03-01T23:59:23.362Z,100041.21
